createdAt,value
2023-02-06T00:00:46.768Z,6.03
2023-02-06T00:03:14.129Z,5.97
2023-02-06T00:05:41.420Z,6.78
2023-02-06T00:08:08.681Z,6.35
2023-02-06T00:10:35.898Z,6.43
2023-02-06T00:13:03.175Z,6.22
2023-02-06T00:15:30.383Z,5.50
2023-02-06T00:17:57.624Z,6.60
2023-02-06T00:20:24.820Z,7.13
2023-02-06T00:22:52.066Z,6.30
2023-02-06T00:25:19.347Z,6.75
2023-02-06T00:27:46.648Z,6.35
2023-02-06T00:30:14.018Z,6.43
2023-02-06T00:32:41.318Z,5.65
2023-02-06T00:35:08.787Z,7.20
2023-02-06T00:37:36.055Z,6.22
2023-02-06T00:40:03.323Z,6.43
2023-02-06T00:42:31.412Z,6.13
2023-02-06T00:44:58.640Z,6.40
2023-02-06T00:47:25.927Z,5.35
2023-02-06T00:49:53.261Z,5.57
2023-02-06T00:52:20.503Z,7.07
2023-02-06T00:54:47.753Z,5.28
2023-02-06T00:57:15.027Z,5.80
2023-02-06T00:59:42.322Z,5.60
2023-02-06T01:02:09.632Z,6.03
2023-02-06T01:04:36.900Z,5.82
2023-02-06T01:07:05.918Z,5.82
2023-02-06T01:09:33.132Z,6.20
2023-02-06T01:12:00.388Z,6.60
2023-02-06T01:14:27.649Z,6.28
2023-02-06T01:16:54.883Z,7.05
2023-02-06T01:19:22.090Z,6.00
2023-02-06T01:21:49.357Z,6.22
2023-02-06T01:24:16.586Z,5.13
2023-02-06T01:26:44.517Z,4.95
2023-02-06T01:29:11.737Z,6.28
2023-02-06T01:31:41.046Z,4.82
2023-02-06T01:34:08.306Z,4.90
2023-02-06T01:36:36.299Z,5.60
2023-02-06T01:39:03.611Z,7.45
2023-02-06T01:41:30.881Z,6.15
2023-02-06T01:44:13.237Z,5.22
2023-02-06T01:46:41.884Z,4.85
2023-02-06T01:49:10.470Z,4.45
2023-02-06T01:51:37.862Z,5.88
2023-02-06T01:54:06.573Z,5.93
2023-02-06T01:56:37.756Z,5.25
2023-02-06T01:59:05.409Z,5.60
2023-02-06T02:01:33.109Z,5.18
2023-02-06T02:04:06.534Z,7.38
2023-02-06T02:06:34.592Z,5.32
2023-02-06T02:09:03.023Z,6.65
2023-02-06T02:11:34.819Z,4.90
2023-02-06T02:14:02.908Z,5.63
2023-02-06T02:16:43.594Z,5.60
2023-02-06T02:19:23.340Z,4.53
2023-02-06T02:21:56.934Z,4.63
2023-02-06T02:24:44.442Z,4.55
2023-02-06T02:27:27.286Z,5.50
2023-02-06T02:30:17.485Z,7.03
2023-02-06T02:32:51.553Z,5.13
2023-02-06T02:35:28.462Z,6.50
2023-02-06T02:37:57.006Z,6.05
2023-02-06T02:40:24.273Z,4.57
2023-02-06T02:42:51.853Z,6.45
2023-02-06T02:45:26.584Z,4.93
2023-02-06T02:47:59.660Z,6.65
2023-02-06T02:50:27.786Z,6.22
2023-02-06T02:52:55.045Z,5.35
2023-02-06T02:55:23.438Z,5.88
2023-02-06T02:57:59.001Z,4.80
2023-02-06T03:00:26.868Z,7.30
2023-02-06T03:02:55.172Z,6.70
2023-02-06T03:05:24.444Z,5.90
2023-02-06T03:08:11.525Z,5.75
2023-02-06T03:10:42.603Z,6.53
2023-02-06T03:13:23.558Z,6.57
2023-02-06T03:15:51.099Z,4.72
2023-02-06T03:18:18.321Z,5.32
2023-02-06T03:20:46.925Z,5.93
2023-02-06T03:23:17.819Z,6.55
2023-02-06T03:25:45.942Z,5.43
2023-02-06T03:28:16.694Z,4.65
2023-02-06T03:30:47.584Z,4.65
2023-02-06T03:33:16.194Z,4.63
2023-02-06T03:35:43.646Z,4.47
2023-02-06T03:38:11.058Z,6.78
2023-02-06T03:40:40.330Z,5.22
2023-02-06T03:43:08.371Z,4.78
2023-02-06T03:45:39.203Z,7.32
2023-02-06T03:48:09.678Z,5.70
2023-02-06T03:50:37.813Z,5.25
2023-02-06T03:53:05.509Z,5.20
2023-02-06T03:55:32.738Z,6.45
2023-02-06T03:58:03.210Z,5.82
2023-02-06T04:00:31.541Z,7.43
2023-02-06T04:02:59.443Z,4.65
2023-02-06T04:05:27.107Z,6.95
2023-02-06T04:07:56.510Z,4.85
2023-02-06T04:10:26.186Z,5.95
2023-02-06T04:12:53.855Z,5.13
2023-02-06T04:15:21.458Z,4.57
2023-02-06T04:17:59.484Z,5.20
2023-02-06T04:20:27.498Z,4.13
2023-02-06T04:22:54.988Z,6.20
2023-02-06T04:25:22.238Z,5.47
2023-02-06T04:27:49.490Z,5.78
2023-02-06T04:30:17.933Z,4.93
2023-02-06T04:32:45.226Z,7.37
2023-02-06T04:35:12.580Z,6.20
2023-02-06T04:37:39.925Z,6.63
2023-02-06T04:40:07.541Z,4.65
2023-02-06T04:42:34.901Z,6.72
2023-02-06T04:45:02.133Z,5.65
2023-02-06T04:47:29.435Z,5.93
2023-02-06T04:49:56.658Z,4.72
2023-02-06T04:52:23.879Z,6.00
2023-02-06T04:54:51.115Z,6.13
2023-02-06T04:57:18.395Z,4.68
2023-02-06T04:59:45.728Z,4.75
2023-02-06T05:02:13.074Z,6.80
2023-02-06T05:04:40.319Z,6.70
2023-02-06T05:07:07.660Z,5.35
2023-02-06T05:09:34.961Z,5.22
2023-02-06T05:12:02.403Z,4.50
2023-02-06T05:14:29.696Z,6.30
2023-02-06T05:16:56.872Z,6.57
2023-02-06T05:19:24.112Z,5.13
2023-02-06T05:21:51.356Z,4.68
2023-02-06T05:24:18.631Z,5.80
2023-02-06T05:26:46.561Z,4.63
2023-02-06T05:29:13.824Z,5.38
2023-02-06T05:31:41.239Z,4.80
2023-02-06T05:34:09.669Z,6.43
2023-02-06T05:36:36.928Z,4.10
2023-02-06T05:39:04.711Z,5.93
2023-02-06T05:41:32.149Z,4.63
2023-02-06T05:43:59.450Z,4.15
2023-02-06T05:46:26.738Z,4.97
2023-02-06T05:48:54.006Z,4.38
2023-02-06T05:51:21.246Z,4.82
2023-02-06T05:53:48.662Z,5.13
2023-02-06T05:56:15.896Z,4.38
2023-02-06T05:58:43.244Z,4.72
2023-02-06T06:01:11.606Z,6.38
2023-02-06T06:03:38.904Z,5.40
2023-02-06T06:06:06.724Z,6.22
2023-02-06T06:08:34.022Z,7.28
2023-02-06T06:11:02.737Z,5.80
2023-02-06T06:13:30.150Z,6.80
2023-02-06T06:15:57.409Z,7.28
2023-02-06T06:18:24.697Z,5.60
2023-02-06T06:20:52.099Z,5.15
2023-02-06T06:23:19.427Z,5.28
2023-02-06T06:25:47.365Z,5.30
2023-02-06T06:28:14.684Z,6.30
2023-02-06T06:30:41.950Z,5.25
2023-02-06T06:33:09.252Z,5.47
2023-02-06T06:35:36.686Z,4.47
2023-02-06T06:38:04.080Z,5.88
2023-02-06T06:40:31.445Z,6.28
2023-02-06T06:42:58.687Z,6.72
2023-02-06T06:45:25.924Z,5.10
2023-02-06T06:47:53.200Z,4.85
2023-02-06T06:50:20.507Z,5.82
2023-02-06T06:52:47.803Z,5.78
2023-02-06T06:55:15.089Z,4.97
2023-02-06T06:57:42.516Z,5.32
2023-02-06T07:00:10.371Z,5.80
2023-02-06T07:02:37.685Z,6.53
2023-02-06T07:05:05.942Z,6.05
2023-02-06T07:07:33.222Z,4.95
2023-02-06T07:10:00.739Z,4.90
2023-02-06T07:12:28.631Z,5.90
2023-02-06T07:14:55.917Z,5.78
2023-02-06T07:17:23.206Z,6.63
2023-02-06T07:19:52.479Z,7.43
2023-02-06T07:24:46.854Z,8.20
2023-02-06T07:27:14.507Z,6.38
2023-02-06T07:29:41.760Z,4.20
2023-02-06T07:32:09.171Z,6.30
2023-02-06T07:34:36.555Z,5.07
2023-02-06T07:37:04.269Z,5.13
2023-02-06T07:39:31.483Z,5.30
2023-02-06T07:41:58.791Z,5.35
2023-02-06T07:44:32.672Z,5.45
2023-02-06T07:46:59.891Z,5.20
2023-02-06T07:49:27.226Z,5.20
2023-02-06T07:51:54.515Z,7.75
2023-02-06T07:54:21.783Z,4.88
2023-02-06T07:56:49.073Z,5.00
2023-02-06T07:59:16.876Z,5.65
2023-02-06T08:01:44.131Z,5.25
2023-02-06T08:04:11.560Z,5.10
2023-02-06T08:06:41.519Z,5.63
2023-02-06T08:09:12.177Z,6.00
2023-02-06T08:11:47.507Z,5.13
2023-02-06T08:14:14.793Z,5.18
2023-02-06T08:16:42.179Z,4.95
2023-02-06T08:19:10.945Z,5.68
2023-02-06T08:21:38.212Z,6.53
2023-02-06T08:24:05.557Z,5.07
2023-02-06T08:26:33.062Z,6.10
2023-02-06T08:29:02.338Z,6.88
2023-02-06T08:31:34.557Z,7.22
2023-02-06T08:34:02.050Z,7.13
2023-02-06T08:36:32.020Z,6.18
2023-02-06T08:38:59.876Z,5.60
2023-02-06T08:41:28.990Z,6.55
2023-02-06T08:43:57.546Z,5.20
2023-02-06T08:46:25.974Z,6.47
2023-02-06T08:49:03.037Z,4.85
2023-02-06T08:51:30.466Z,6.28
2023-02-06T08:54:02.126Z,8.45
2023-02-06T08:56:30.166Z,8.57
2023-02-06T08:58:59.554Z,7.47
2023-02-06T09:03:58.206Z,7.25
2023-02-06T09:06:26.042Z,9.30
2023-02-06T09:08:53.390Z,10.68
2023-02-06T09:11:21.912Z,9.57
2023-02-06T09:13:49.729Z,11.20
2023-02-06T09:16:21.170Z,8.32
2023-02-06T09:18:49.358Z,8.35
2023-02-06T09:21:20.856Z,8.55
2023-02-06T09:23:49.127Z,9.02
2023-02-06T09:26:19.251Z,8.38
2023-02-06T09:28:46.939Z,10.43
2023-02-06T09:31:14.433Z,7.88
2023-02-06T09:33:41.832Z,9.73
2023-02-06T09:36:10.921Z,9.20
2023-02-06T09:38:42.237Z,7.45
2023-02-06T09:41:23.955Z,8.00
2023-02-06T09:44:13.391Z,6.85
2023-02-06T09:47:05.086Z,7.75
2023-02-06T09:49:37.915Z,6.47
2023-02-06T09:52:05.249Z,7.88
2023-02-06T09:54:51.302Z,6.28
2023-02-06T09:57:22.214Z,25.20
2023-02-06T09:59:52.506Z,14.88
2023-02-06T10:02:28.815Z,11.18
2023-02-06T10:04:59.071Z,9.82
2023-02-06T10:07:45.279Z,9.35
2023-02-06T10:10:20.152Z,8.85
2023-02-06T10:13:07.718Z,9.20
2023-02-06T10:15:38.906Z,7.13
2023-02-06T10:18:09.879Z,9.75
2023-02-06T10:20:39.602Z,9.75
2023-02-06T10:23:12.945Z,8.90
2023-02-06T10:25:45.920Z,7.13
2023-02-06T10:28:13.200Z,7.50
2023-02-06T10:31:02.902Z,5.75
2023-02-06T10:33:30.303Z,7.88
2023-02-06T10:36:02.349Z,6.03
2023-02-06T10:38:40.343Z,6.85
2023-02-06T10:41:13.636Z,7.45
2023-02-06T10:44:04.061Z,5.30
2023-02-06T10:46:53.692Z,7.22
2023-02-06T10:49:27.925Z,5.97
2023-02-06T10:51:57.833Z,8.18
2023-02-06T10:54:39.359Z,4.97
2023-02-06T10:57:13.455Z,4.45
2023-02-06T10:59:53.933Z,4.85
2023-02-06T11:02:21.537Z,6.47
2023-02-06T11:05:07.671Z,5.18
2023-02-06T11:07:40.318Z,4.80
2023-02-06T11:10:07.708Z,3.97
2023-02-06T11:12:37.054Z,5.00
2023-02-06T11:17:32.406Z,6.40
2023-02-06T11:20:03.033Z,6.20
2023-02-06T11:22:33.308Z,4.55
2023-02-06T11:25:03.974Z,5.97
2023-02-06T11:27:32.215Z,4.32
2023-02-06T11:30:02.834Z,4.60
2023-02-06T11:32:35.060Z,4.25
2023-02-06T11:35:05.288Z,3.80
2023-02-06T11:37:37.683Z,5.00
2023-02-06T11:40:20.080Z,4.97
2023-02-06T11:42:48.402Z,5.57
2023-02-06T11:45:32.479Z,5.43
2023-02-06T11:48:00.393Z,5.25
2023-02-06T11:50:29.561Z,7.95
2023-02-06T11:55:37.006Z,6.45
2023-02-06T11:58:23.222Z,6.55
2023-02-06T12:00:54.662Z,6.35
2023-02-06T12:03:38.855Z,7.15
2023-02-06T12:06:09.202Z,5.38
2023-02-06T12:08:48.553Z,6.60
2023-02-06T12:11:22.667Z,4.40
2023-02-06T12:13:52.198Z,4.43
2023-02-06T12:16:19.598Z,5.43
2023-02-06T12:18:52.210Z,4.38
2023-02-06T12:21:27.941Z,4.68
2023-02-06T12:24:02.830Z,4.60
2023-02-06T12:26:32.473Z,5.82
2023-02-06T12:29:09.742Z,4.95
2023-02-06T12:31:42.112Z,5.97
2023-02-06T12:34:12.283Z,4.72
2023-02-06T12:37:14.430Z,5.13
2023-02-06T12:39:43.722Z,4.90
2023-02-06T12:42:29.638Z,6.53
2023-02-06T12:44:59.190Z,4.70
2023-02-06T12:47:32.571Z,2.90
2023-02-06T12:50:12.095Z,3.17
2023-02-06T12:52:45.984Z,3.55
2023-02-06T12:55:31.806Z,4.65
2023-02-06T12:57:59.784Z,3.55
2023-02-06T13:00:31.120Z,4.10
2023-02-06T13:03:18.744Z,3.85
2023-02-06T13:06:10.626Z,3.47
2023-02-06T13:08:40.586Z,4.60
2023-02-06T13:11:10.085Z,4.20
2023-02-06T13:13:38.716Z,3.05
2023-02-06T13:16:06.647Z,5.18
2023-02-06T13:18:40.346Z,3.35
2023-02-06T13:21:16.852Z,3.35
2023-02-06T13:24:13.705Z,4.13
2023-02-06T13:26:43.969Z,4.78
2023-02-06T13:29:25.252Z,4.55
2023-02-06T13:32:22.607Z,4.07
2023-02-06T13:34:50.598Z,3.70
2023-02-06T13:37:33.569Z,3.83
2023-02-06T13:40:22.742Z,3.63
2023-02-06T13:45:20.684Z,3.45
2023-02-06T13:47:51.353Z,4.22
2023-02-06T13:50:18.936Z,3.72
2023-02-06T13:53:01.676Z,3.85
2023-02-06T13:55:31.879Z,3.90
2023-02-06T13:58:02.092Z,3.60
2023-02-06T14:00:31.412Z,4.68
2023-02-06T14:03:06.610Z,4.53
2023-02-06T14:05:47.139Z,4.00
2023-02-06T14:08:22.800Z,3.28
2023-02-06T14:11:28.146Z,4.55
2023-02-06T14:14:14.850Z,3.90
2023-02-06T14:16:50.420Z,4.97
2023-02-06T14:19:26.421Z,3.92
2023-02-06T14:22:03.040Z,5.35
2023-02-06T14:24:43.867Z,4.40
2023-02-06T14:27:17.941Z,4.35
2023-02-06T14:29:51.130Z,2.80
2023-02-06T14:32:37.286Z,3.70
2023-02-06T14:35:18.368Z,3.10
2023-02-06T14:37:55.078Z,3.70
2023-02-06T14:40:24.695Z,5.63
2023-02-06T14:42:54.177Z,4.22
2023-02-06T14:45:42.199Z,3.00
2023-02-06T14:48:19.549Z,5.80
2023-02-06T14:50:49.511Z,2.92
2023-02-06T14:53:24.387Z,3.15
2023-02-06T14:55:52.045Z,4.07
2023-02-06T14:58:25.727Z,3.85
2023-02-06T15:00:54.119Z,2.97
2023-02-06T15:03:24.645Z,2.67
2023-02-06T15:06:00.543Z,3.08
2023-02-06T15:08:28.153Z,4.40
2023-02-06T15:11:00.123Z,4.22
2023-02-06T15:13:35.079Z,3.70
2023-02-06T15:16:04.187Z,3.10
2023-02-06T15:18:34.272Z,3.75
2023-02-06T15:21:05.568Z,4.63
2023-02-06T15:23:55.295Z,3.45
2023-02-06T15:26:22.911Z,4.15
2023-02-06T15:28:56.754Z,4.18
2023-02-06T15:31:25.218Z,4.10
2023-02-06T15:33:55.235Z,4.57
2023-02-06T15:36:29.698Z,7.60
2023-02-06T15:38:57.432Z,4.25
2023-02-06T15:41:24.958Z,4.80
2023-02-06T15:43:54.560Z,3.53
2023-02-06T15:46:22.625Z,3.30
2023-02-06T15:48:51.457Z,4.50
2023-02-06T15:51:26.985Z,4.03
2023-02-06T15:54:19.794Z,3.50
2023-02-06T15:56:50.205Z,3.67
2023-02-06T15:59:23.056Z,6.32
2023-02-06T16:01:52.845Z,5.60
2023-02-06T16:04:29.070Z,3.50
2023-02-06T16:07:03.376Z,4.30
2023-02-06T16:09:31.093Z,4.00
2023-02-06T16:11:58.858Z,5.50
2023-02-06T16:14:26.172Z,4.57
2023-02-06T16:16:57.411Z,4.95
2023-02-06T16:19:29.840Z,5.55
2023-02-06T16:22:28.082Z,4.65
2023-02-06T16:25:12.756Z,4.93
2023-02-06T16:27:43.262Z,6.18
2023-02-06T16:30:37.165Z,5.05
2023-02-06T16:33:19.157Z,4.35
2023-02-06T16:35:46.455Z,4.35
2023-02-06T16:38:13.694Z,4.10
2023-02-06T16:40:41.053Z,5.65
2023-02-06T16:43:12.037Z,5.68
2023-02-06T16:45:39.317Z,7.55
2023-02-06T16:48:11.356Z,5.07
2023-02-06T16:50:43.822Z,6.88
2023-02-06T16:53:18.405Z,6.47
2023-02-06T16:55:48.675Z,6.40
2023-02-06T16:58:20.849Z,7.38
2023-02-06T17:00:49.222Z,6.18
2023-02-06T17:03:18.736Z,5.70
2023-02-06T17:05:48.436Z,6.47
2023-02-06T17:10:58.430Z,6.85
2023-02-06T17:13:26.505Z,6.38
2023-02-06T17:15:54.430Z,5.93
2023-02-06T17:18:22.765Z,6.65
2023-02-06T17:20:52.701Z,5.75
2023-02-06T17:23:20.627Z,6.32
2023-02-06T17:25:48.975Z,5.40
2023-02-06T17:28:17.994Z,7.50
2023-02-06T17:30:46.565Z,7.72
2023-02-06T17:33:13.889Z,5.00
2023-02-06T17:35:41.128Z,5.32
2023-02-06T17:38:09.071Z,5.22
2023-02-06T17:40:41.390Z,5.57
2023-02-06T17:43:09.649Z,5.90
2023-02-06T17:45:38.528Z,5.57
2023-02-06T17:48:07.201Z,4.90
2023-02-06T17:50:38.270Z,5.93
2023-02-06T17:53:08.063Z,7.90
2023-02-06T17:55:37.820Z,8.05
2023-02-06T17:58:06.913Z,9.15
2023-02-06T18:00:36.812Z,7.90
2023-02-06T18:03:05.439Z,8.30
2023-02-06T18:05:32.990Z,6.97
2023-02-06T18:08:00.343Z,7.15
2023-02-06T18:10:27.672Z,6.32
2023-02-06T18:12:54.974Z,8.15
2023-02-06T18:15:23.564Z,8.63
2023-02-06T18:18:02.303Z,7.82
2023-02-06T18:20:43.650Z,8.57
2023-02-06T18:23:14.336Z,5.63
2023-02-06T18:25:45.251Z,6.65
2023-02-06T18:28:24.294Z,6.05
2023-02-06T18:31:08.124Z,4.93
2023-02-06T18:33:36.946Z,5.35
2023-02-06T18:36:07.654Z,5.47
2023-02-06T18:38:35.127Z,7.38
2023-02-06T18:41:06.011Z,5.15
2023-02-06T18:43:34.010Z,7.18
2023-02-06T18:46:13.425Z,5.80
2023-02-06T18:48:41.191Z,5.95
2023-02-06T18:51:08.552Z,4.90
2023-02-06T18:53:38.861Z,8.18
2023-02-06T18:56:06.215Z,4.88
2023-02-06T18:58:33.487Z,5.68
2023-02-06T19:01:00.885Z,5.90
2023-02-06T19:03:28.237Z,7.00
2023-02-06T19:05:57.344Z,6.35
2023-02-06T19:08:24.655Z,8.80
2023-02-06T19:10:51.936Z,8.73
2023-02-06T19:13:19.229Z,7.65
2023-02-06T19:15:46.682Z,7.13
2023-02-06T19:18:13.902Z,7.63
2023-02-06T19:20:43.981Z,8.88
2023-02-06T19:23:11.234Z,6.45
2023-02-06T19:25:40.879Z,6.28
2023-02-06T19:28:08.335Z,5.95
2023-02-06T19:30:35.980Z,5.78
2023-02-06T19:33:03.394Z,5.97
2023-02-06T19:35:30.751Z,6.65
2023-02-06T19:37:58.251Z,6.53
2023-02-06T19:40:25.606Z,5.82
2023-02-06T19:42:52.957Z,5.97
2023-02-06T19:45:20.189Z,6.68
2023-02-06T19:47:48.056Z,8.70
2023-02-06T19:50:15.748Z,7.78
2023-02-06T19:52:43.046Z,6.85
2023-02-06T19:55:10.610Z,7.25
2023-02-06T19:57:39.645Z,8.13
2023-02-06T20:00:07.324Z,6.72
2023-02-06T20:02:34.848Z,6.90
2023-02-06T20:05:02.761Z,6.05
2023-02-06T20:07:30.763Z,6.82
2023-02-06T20:09:58.060Z,6.60
2023-02-06T20:12:25.361Z,7.28
2023-02-06T20:14:52.726Z,6.85
2023-02-06T20:17:20.025Z,6.60
2023-02-06T20:19:47.341Z,10.18
2023-02-06T20:22:14.732Z,8.57
2023-02-06T20:24:42.093Z,8.85
2023-02-06T20:27:12.309Z,10.45
2023-02-06T20:29:42.477Z,9.38
2023-02-06T20:32:10.985Z,9.98
2023-02-06T20:34:38.357Z,16.40
2023-02-06T20:37:05.636Z,15.02
2023-02-06T20:39:33.092Z,18.95
2023-02-06T20:42:00.344Z,17.48
2023-02-06T20:44:27.745Z,15.15
2023-02-06T20:46:55.019Z,12.27
2023-02-06T20:49:23.459Z,9.68
2023-02-06T20:51:50.852Z,10.20
2023-02-06T20:54:19.182Z,8.80
2023-02-06T20:56:46.831Z,7.20
2023-02-06T20:59:15.714Z,8.63
2023-02-06T21:01:43.060Z,8.02
2023-02-06T21:04:11.315Z,10.60
2023-02-06T21:06:39.120Z,9.93
2023-02-06T21:09:07.079Z,7.93
2023-02-06T21:11:36.227Z,8.65
2023-02-06T21:14:04.666Z,9.30
2023-02-06T21:16:32.494Z,10.65
2023-02-06T21:19:00.211Z,8.07
2023-02-06T21:21:27.715Z,8.75
2023-02-06T21:23:58.249Z,8.65
2023-02-06T21:26:26.720Z,8.02
2023-02-06T21:28:54.056Z,6.60
2023-02-06T21:31:23.115Z,8.00
2023-02-06T21:33:51.434Z,7.82
2023-02-06T21:36:18.942Z,8.13
2023-02-06T21:38:46.281Z,8.38
2023-02-06T21:41:15.087Z,8.07
2023-02-06T21:43:42.614Z,7.40
2023-02-06T21:46:10.317Z,7.25
2023-02-06T21:48:37.963Z,7.53
2023-02-06T21:51:15.699Z,7.50
2023-02-06T21:53:43.837Z,7.57
2023-02-06T21:56:14.221Z,8.52
2023-02-06T21:58:41.475Z,7.68
2023-02-06T22:01:09.179Z,7.90
2023-02-06T22:03:36.569Z,7.95
2023-02-06T22:06:09.154Z,6.72
2023-02-06T22:08:37.146Z,8.48
2023-02-06T22:11:13.484Z,7.50
2023-02-06T22:13:41.084Z,7.90
2023-02-06T22:16:09.160Z,11.32
2023-02-06T22:18:36.946Z,7.80
2023-02-06T22:21:05.541Z,9.00
2023-02-06T22:23:33.053Z,7.72
2023-02-06T22:26:00.425Z,7.93
2023-02-06T22:28:27.755Z,8.40
2023-02-06T22:30:55.231Z,7.55
2023-02-06T22:33:22.563Z,8.13
2023-02-06T22:35:49.857Z,7.90
2023-02-06T22:38:17.104Z,8.23
2023-02-06T22:40:44.395Z,11.48
2023-02-06T22:43:11.614Z,10.90
2023-02-06T22:45:39.115Z,10.77
2023-02-06T22:48:06.574Z,9.05
2023-02-06T22:50:35.904Z,8.10
2023-02-06T22:56:07.944Z,8.27
2023-02-06T22:58:35.286Z,7.70
2023-02-06T23:01:03.750Z,7.00
2023-02-06T23:03:31.124Z,8.77
2023-02-06T23:06:02.128Z,7.85
2023-02-06T23:08:29.432Z,8.55
2023-02-06T23:10:56.741Z,8.50
2023-02-06T23:13:24.193Z,9.15
2023-02-06T23:15:51.499Z,8.40
2023-02-06T23:18:18.823Z,8.07
2023-02-06T23:20:46.180Z,8.70
2023-02-06T23:23:13.430Z,8.32
2023-02-06T23:25:44.587Z,9.65
2023-02-06T23:28:11.881Z,8.88
2023-02-06T23:30:39.464Z,7.15
2023-02-06T23:33:06.786Z,7.20
2023-02-06T23:35:40.544Z,6.70
2023-02-06T23:38:08.552Z,7.63
2023-02-06T23:40:36.220Z,6.45
2023-02-06T23:43:05.202Z,7.10
2023-02-06T23:45:32.634Z,7.55
2023-02-06T23:47:59.917Z,6.18
2023-02-06T23:50:27.500Z,8.27
2023-02-06T23:52:54.953Z,7.75
2023-02-06T23:55:24.807Z,8.98
2023-02-06T23:57:52.068Z,8.68
